Terminal Aerodrome Forecast
Issued by NWS Brownsville, TX

Home | Current Version | Previous Version | Text Only | Print | Product List | Glossary On
Versions: 1 2 3 4 5 6 7 8 9 10 11 12 13 14 15 16 17 18 19 20 21 22 23 24
000
FTUS44 KBRO 221400 AAB
TAFBRO
TAF AMD
KBRO 221432Z 2215/2312 15005KT 6SM BR OVC003
      TEMPO 2215/2216 3SM BR
     FM221615 19009KT P6SM SCT015
     FM221800 18015G20KT P6SM SCT030
     FM230400 14002KT 5SM BR BKN010
     FM230700 00000KT 2SM BR OVC007=

USA.gov is the U.S. government's official web portal to all federal, state and local government web resources and services.